sensor_id;sensor_type;location;lat;lon;timestamp;pressure;altitude;pressure_sealevel;temperature;humidity
40650;BME280;26342;42.826;23.992;2023-04-03T00:01:23;94794.81;;;5.72;100.00
40650;BME280;26342;42.826;23.992;2023-04-03T00:03:49;94785.53;;;5.69;100.00
40650;BME280;26342;42.826;23.992;2023-04-03T00:06:17;94794.56;;;5.73;100.00
40650;BME280;26342;42.826;23.992;2023-04-03T00:08:43;94787.81;;;5.66;100.00
40650;BME280;26342;42.826;23.992;2023-04-03T00:11:09;94788.63;;;5.66;100.00
40650;BME280;26342;42.826;23.992;2023-04-03T00:13:36;94788.63;;;5.66;100.00
40650;BME280;26342;42.826;23.992;2023-04-03T00:16:02;94781.56;;;5.55;100.00
40650;BME280;26342;42.826;23.992;2023-04-03T00:18:28;94786.06;;;5.54;100.00
40650;BME280;26342;42.826;23.992;2023-04-03T00:21:00;94784.69;;;5.52;100.00
40650;BME280;26342;42.826;23.992;2023-04-03T00:23:48;94780.44;;;5.51;100.00
40650;BME280;26342;42.826;23.992;2023-04-03T00:26:13;94769.19;;;5.44;100.00
40650;BME280;26342;42.826;23.992;2023-04-03T00:28:38;94764.41;;;5.41;100.00
40650;BME280;26342;42.826;23.992;2023-04-03T00:31:04;94771.56;;;5.28;100.00
40650;BME280;26342;42.826;23.992;2023-04-03T00:33:29;94771.03;;;5.26;100.00
40650;BME280;26342;42.826;23.992;2023-04-03T00:35:55;94773.41;;;5.28;100.00
40650;BME280;26342;42.826;23.992;2023-04-03T00:38:30;94772.06;;;5.25;100.00
40650;BME280;26342;42.826;23.992;2023-04-03T00:41:12;94763.81;;;5.22;100.00
40650;BME280;26342;42.826;23.992;2023-04-03T00:43:45;94772.22;;;5.19;100.00
40650;BME280;26342;42.826;23.992;2023-04-03T00:46:16;94771.50;;;5.23;100.00
40650;BME280;26342;42.826;23.992;2023-04-03T00:48:47;94774.94;;;5.24;100.00
40650;BME280;26342;42.826;23.992;2023-04-03T00:51:16;94774.44;;;5.10;100.00
40650;BME280;26342;42.826;23.992;2023-04-03T00:54:01;94779.16;;;5.08;100.00
40650;BME280;26342;42.826;23.992;2023-04-03T00:56:37;94781.47;;;5.04;100.00
40650;BME280;26342;42.826;23.992;2023-04-03T00:59:15;94787.25;;;5.01;100.00
40650;BME280;26342;42.826;23.992;2023-04-03T01:01:43;94787.25;;;5.01;100.00
40650;BME280;26342;42.826;23.992;2023-04-03T01:04:33;94772.69;;;4.87;100.00
40650;BME280;26342;42.826;23.992;2023-04-03T01:07:02;94784.84;;;5.00;100.00
40650;BME280;26342;42.826;23.992;2023-04-03T01:09:29;94784.28;;;4.98;100.00
40650;BME280;26342;42.826;23.992;2023-04-03T01:12:17;94786.69;;;4.99;100.00
40650;BME280;26342;42.826;23.992;2023-04-03T01:14:48;94789.47;;;4.93;100.00
40650;BME280;26342;42.826;23.992;2023-04-03T01:17:30;94784.31;;;4.86;100.00
40650;BME280;26342;42.826;23.992;2023-04-03T01:25:56;94782.22;;;4.48;100.00
40650;BME280;26342;42.826;23.992;2023-04-03T01:28:41;94784.78;;;4.43;100.00
40650;BME280;26342;42.826;23.992;2023-04-03T01:31:28;94787.84;;;4.52;100.00
40650;BME280;26342;42.826;23.992;2023-04-03T01:36:36;94791.66;;;4.32;100.00
40650;BME280;26342;42.826;23.992;2023-04-03T01:39:02;94787.66;;;4.30;100.00
40650;BME280;26342;42.826;23.992;2023-04-03T01:41:28;94790.84;;;4.32;100.00
40650;BME280;26342;42.826;23.992;2023-04-03T01:43:53;94786.94;;;4.34;100.00
40650;BME280;26342;42.826;23.992;2023-04-03T01:46:19;94791.31;;;4.40;100.00
40650;BME280;26342;42.826;23.992;2023-04-03T01:48:45;94792.47;;;4.44;100.00
40650;BME280;26342;42.826;23.992;2023-04-03T01:51:26;94796.13;;;4.43;100.00
40650;BME280;26342;42.826;23.992;2023-04-03T01:54:01;94783.13;;;4.42;100.00
40650;BME280;26342;42.826;23.992;2023-04-03T01:56:27;94790.13;;;4.48;100.00
40650;BME280;26342;42.826;23.992;2023-04-03T01:58:53;94787.06;;;4.39;100.00
40650;BME280;26342;42.826;23.992;2023-04-03T02:01:19;94787.78;;;4.35;100.00
40650;BME280;26342;42.826;23.992;2023-04-03T02:03:44;94791.34;;;4.29;100.00
40650;BME280;26342;42.826;23.992;2023-04-03T02:06:10;94795.09;;;4.33;100.00
40650;BME280;26342;42.826;23.992;2023-04-03T02:08:35;94791.66;;;4.32;100.00
40650;BME280;26342;42.826;23.992;2023-04-03T02:11:00;94798.09;;;4.36;100.00
40650;BME280;26342;42.826;23.992;2023-04-03T02:13:32;94794.19;;;4.39;100.00
40650;BME280;26342;42.826;23.992;2023-04-03T02:16:11;94785.34;;;4.33;100.00
40650;BME280;26342;42.826;23.992;2023-04-03T02:18:37;94789.25;;;4.31;100.00
40650;BME280;26342;42.826;23.992;2023-04-03T02:21:03;94793.25;;;4.33;100.00
40650;BME280;26342;42.826;23.992;2023-04-03T02:23:29;94796.03;;;4.27;100.00
40650;BME280;26342;42.826;23.992;2023-04-03T02:26:04;94790.75;;;4.27;100.00
40650;BME280;26342;42.826;23.992;2023-04-03T02:28:35;94782.00;;;4.26;100.00
40650;BME280;26342;42.826;23.992;2023-04-03T02:31:02;94785.94;;;4.24;100.00
40650;BME280;26342;42.826;23.992;2023-04-03T02:33:29;94786.63;;;4.19;100.00
40650;BME280;26342;42.826;23.992;2023-04-03T02:35:58;94783.16;;;4.18;100.00
40650;BME280;26342;42.826;23.992;2023-04-03T02:38:24;94776.63;;;4.09;100.00
40650;BME280;26342;42.826;23.992;2023-04-03T02:40:59;94775.75;;;4.04;100.00
40650;BME280;26342;42.826;23.992;2023-04-03T02:43:27;94779.28;;;4.09;100.00
40650;BME280;26342;42.826;23.992;2023-04-03T02:45:52;94765.63;;;4.01;100.00
40650;BME280;26342;42.826;23.992;2023-04-03T02:48:17;94763.53;;;4.03;100.00
40650;BME280;26342;42.826;23.992;2023-04-03T02:50:43;94771.59;;;3.96;100.00
40650;BME280;26342;42.826;23.992;2023-04-03T02:53:13;94766.78;;;3.93;100.00
40650;BME280;26342;42.826;23.992;2023-04-03T02:55:38;94765.16;;;3.92;100.00
40650;BME280;26342;42.826;23.992;2023-04-03T02:58:03;94761.72;;;3.91;100.00
40650;BME280;26342;42.826;23.992;2023-04-03T03:00:29;94761.72;;;3.91;100.00
40650;BME280;26342;42.826;23.992;2023-04-03T03:02:55;94761.59;;;3.86;100.00
40650;BME280;26342;42.826;23.992;2023-04-03T03:05:20;94752.78;;;3.81;100.00
40650;BME280;26342;42.826;23.992;2023-04-03T03:07:46;94736.59;;;3.66;100.00
40650;BME280;26342;42.826;23.992;2023-04-03T03:10:11;94760.00;;;3.85;100.00
40650;BME280;26342;42.826;23.992;2023-04-03T03:12:36;94757.25;;;3.80;100.00
40650;BME280;26342;42.826;23.992;2023-04-03T03:15:02;94743.03;;;3.81;100.00
40650;BME280;26342;42.826;23.992;2023-04-03T03:17:27;94742.47;;;3.79;100.00
40650;BME280;26342;42.826;23.992;2023-04-03T03:19:53;94751.84;;;3.75;100.00
40650;BME280;26342;42.826;23.992;2023-04-03T03:22:18;94750.56;;;3.54;100.00
40650;BME280;26342;42.826;23.992;2023-04-03T03:24:44;94751.84;;;3.40;100.00
40650;BME280;26342;42.826;23.992;2023-04-03T03:27:09;94745.50;;;3.29;100.00
40650;BME280;26342;42.826;23.992;2023-04-03T03:29:36;94750.09;;;3.34;100.00
40650;BME280;26342;42.826;23.992;2023-04-03T03:32:01;94742.41;;;3.32;100.00
40650;BME280;26342;42.826;23.992;2023-04-03T03:34:27;94747.09;;;3.30;100.00
40650;BME280;26342;42.826;23.992;2023-04-03T03:36:52;94742.28;;;3.39;100.00
40650;BME280;26342;42.826;23.992;2023-04-03T03:39:18;94735.88;;;3.35;100.00
40650;BME280;26342;42.826;23.992;2023-04-03T03:41:44;94740.69;;;3.38;100.00
40650;BME280;26342;42.826;23.992;2023-04-03T03:44:09;94739.09;;;3.37;100.00
40650;BME280;26342;42.826;23.992;2023-04-03T03:46:35;94745.53;;;3.41;100.00
40650;BME280;26342;42.826;23.992;2023-04-03T03:49:00;94735.66;;;3.36;100.00
40650;BME280;26342;42.826;23.992;2023-04-03T03:51:25;94746.56;;;3.40;100.00
40650;BME280;26342;42.826;23.992;2023-04-03T03:53:58;94735.06;;;3.34;100.00
40650;BME280;26342;42.826;23.992;2023-04-03T03:56:32;94747.69;;;3.44;100.00
40650;BME280;26342;42.826;23.992;2023-04-03T03:58:58;94733.72;;;3.32;100.00
40650;BME280;26342;42.826;23.992;2023-04-03T04:01:23;94754.56;;;3.45;100.00
40650;BME280;26342;42.826;23.992;2023-04-03T04:03:49;94750.19;;;3.39;100.00
40650;BME280;26342;42.826;23.992;2023-04-03T04:06:15;94760.09;;;3.44;100.00
40650;BME280;26342;42.826;23.992;2023-04-03T04:08:41;94758.25;;;3.44;100.00
40650;BME280;26342;42.826;23.992;2023-04-03T04:11:07;94753.06;;;3.38;100.00
40650;BME280;26342;42.826;23.992;2023-04-03T04:13:33;94764.31;;;3.45;100.00
40650;BME280;26342;42.826;23.992;2023-04-03T04:16:05;94765.13;;;3.45;100.00
40650;BME280;26342;42.826;23.992;2023-04-03T04:18:30;94759.41;;;3.48;100.00
40650;BME280;26342;42.826;23.992;2023-04-03T04:20:56;94756.66;;;3.43;100.00
40650;BME280;26342;42.826;23.992;2023-04-03T04:23:21;94762.63;;;3.50;100.00
40650;BME280;26342;42.826;23.992;2023-04-03T04:25:48;94762.06;;;3.48;100.00
40650;BME280;26342;42.826;23.992;2023-04-03T04:28:14;94757.09;;;3.40;100.00
40650;BME280;26342;42.826;23.992;2023-04-03T04:30:40;94756.84;;;3.30;100.00
40650;BME280;26342;42.826;23.992;2023-04-03T04:33:05;94770.50;;;3.39;100.00
40650;BME280;26342;42.826;23.992;2023-04-03T04:35:32;94769.47;;;3.40;100.00
40650;BME280;26342;42.826;23.992;2023-04-03T04:37:57;94769.97;;;3.48;100.00
40650;BME280;26342;42.826;23.992;2023-04-03T04:40:23;94778.44;;;3.50;100.00
40650;BME280;26342;42.826;23.992;2023-04-03T04:42:48;94784.19;;;3.59;100.00
40650;BME280;26342;42.826;23.992;2023-04-03T04:45:14;94784.31;;;3.64;100.00
40650;BME280;26342;42.826;23.992;2023-04-03T04:47:51;94778.91;;;3.71;100.00
40650;BME280;26342;42.826;23.992;2023-04-03T04:50:21;94780.31;;;3.73;100.00
40650;BME280;26342;42.826;23.992;2023-04-03T04:52:47;94778.94;;;3.82;100.00
40650;BME280;26342;42.826;23.992;2023-04-03T04:55:12;94789.63;;;3.87;100.00
40650;BME280;26342;42.826;23.992;2023-04-03T04:57:38;94789.84;;;3.86;100.00
40650;BME280;26342;42.826;23.992;2023-04-03T05:00:04;94808.09;;;3.87;100.00
40650;BME280;26342;42.826;23.992;2023-04-03T05:02:33;94803.50;;;3.95;100.00
40650;BME280;26342;42.826;23.992;2023-04-03T05:04:59;94809.47;;;4.13;100.00
40650;BME280;26342;42.826;23.992;2023-04-03T05:07:24;94802.00;;;4.22;100.00
40650;BME280;26342;42.826;23.992;2023-04-03T05:09:55;94795.25;;;4.14;100.00
40650;BME280;26342;42.826;23.992;2023-04-03T05:12:21;94811.22;;;4.19;100.00
40650;BME280;26342;42.826;23.992;2023-04-03T05:14:47;94811.41;;;4.18;100.00
40650;BME280;26342;42.826;23.992;2023-04-03T05:17:13;94807.84;;;4.24;100.00
40650;BME280;26342;42.826;23.992;2023-04-03T05:19:38;94808.41;;;4.26;100.00
40650;BME280;26342;42.826;23.992;2023-04-03T05:22:03;94810.94;;;4.33;100.00
40650;BME280;26342;42.826;23.992;2023-04-03T05:24:29;94809.34;;;4.32;100.00
40650;BME280;26342;42.826;23.992;2023-04-03T05:26:54;94822.56;;;4.43;100.00
40650;BME280;26342;42.826;23.992;2023-04-03T05:29:21;94816.13;;;4.51;100.00
40650;BME280;26342;42.826;23.992;2023-04-03T05:31:49;94815.28;;;4.62;100.00
40650;BME280;26342;42.826;23.992;2023-04-03T05:34:15;94811.22;;;4.71;100.00
40650;BME280;26342;42.826;23.992;2023-04-03T05:36:47;94805.56;;;4.80;100.00
40650;BME280;26342;42.826;23.992;2023-04-03T05:39:17;94807.84;;;4.88;100.00
40650;BME280;26342;42.826;23.992;2023-04-03T05:41:42;94800.03;;;4.93;100.00
40650;BME280;26342;42.826;23.992;2023-04-03T05:44:09;94802.31;;;5.01;100.00
40650;BME280;26342;42.826;23.992;2023-04-03T05:47:03;94803.53;;;5.10;100.00
40650;BME280;26342;42.826;23.992;2023-04-03T05:49:28;94815.09;;;5.21;100.00
40650;BME280;26342;42.826;23.992;2023-04-03T05:51:55;94818.88;;;5.25;100.00
40650;BME280;26342;42.826;23.992;2023-04-03T05:54:27;94807.34;;;5.31;100.00
40650;BME280;26342;42.826;23.992;2023-04-03T05:56:53;94787.78;;;5.32;100.00
40650;BME280;26342;42.826;23.992;2023-04-03T06:02:24;94797.84;;;5.64;100.00
40650;BME280;26342;42.826;23.992;2023-04-03T06:04:50;94799.06;;;5.73;100.00
40650;BME280;26342;42.826;23.992;2023-04-03T06:07:19;94810.31;;;5.80;100.00
40650;BME280;26342;42.826;23.992;2023-04-03T06:09:47;94801.28;;;5.93;100.00
40650;BME280;26342;42.826;23.992;2023-04-03T06:12:13;94787.03;;;5.99;100.00
40650;BME280;26342;42.826;23.992;2023-04-03T06:17:36;94798.72;;;6.36;100.00
40650;BME280;26342;42.826;23.992;2023-04-03T06:20:02;94792.84;;;6.51;100.00
40650;BME280;26342;42.826;23.992;2023-04-03T06:22:29;94795.06;;;6.59;100.00
40650;BME280;26342;42.826;23.992;2023-04-03T06:25:06;94793.56;;;6.68;100.00
40650;BME280;26342;42.826;23.992;2023-04-03T06:27:32;94781.66;;;6.71;100.00
40650;BME280;26342;42.826;23.992;2023-04-03T06:29:57;94776.81;;;6.85;100.00
40650;BME280;26342;42.826;23.992;2023-04-03T06:32:35;94774.25;;;6.95;100.00
40650;BME280;26342;42.826;23.992;2023-04-03T06:35:01;94792.81;;;7.17;100.00
40650;BME280;26342;42.826;23.992;2023-04-03T06:37:26;94796.16;;;7.34;100.00
40650;BME280;26342;42.826;23.992;2023-04-03T06:43:06;94779.78;;;7.69;100.00
40650;BME280;26342;42.826;23.992;2023-04-03T06:45:32;94780.66;;;7.80;100.00
40650;BME280;26342;42.826;23.992;2023-04-03T06:47:57;94783.44;;;7.95;100.00
40650;BME280;26342;42.826;23.992;2023-04-03T06:50:23;94779.50;;;8.03;100.00
40650;BME280;26342;42.826;23.992;2023-04-03T06:52:48;94776.97;;;8.18;100.00
40650;BME280;26342;42.826;23.992;2023-04-03T06:55:14;94779.19;;;8.31;100.00
40650;BME280;26342;42.826;23.992;2023-04-03T06:57:39;94780.84;;;8.43;100.00
40650;BME280;26342;42.826;23.992;2023-04-03T07:00:06;94780.91;;;8.48;100.00
40650;BME280;26342;42.826;23.992;2023-04-03T07:02:32;94788.44;;;8.66;100.00
40650;BME280;26342;42.826;23.992;2023-04-03T07:04:58;94798.31;;;8.71;100.00
40650;BME280;26342;42.826;23.992;2023-04-03T07:07:23;94795.72;;;8.86;100.00
40650;BME280;26342;42.826;23.992;2023-04-03T07:09:49;94786.44;;;8.99;100.00
40650;BME280;26342;42.826;23.992;2023-04-03T07:12:15;94792.66;;;9.19;100.00
40650;BME280;26342;42.826;23.992;2023-04-03T07:14:41;94786.84;;;9.33;100.00
40650;BME280;26342;42.826;23.992;2023-04-03T07:17:06;94780.47;;;9.44;100.00
40650;BME280;26342;42.826;23.992;2023-04-03T07:19:32;94787.09;;;9.46;100.00
40650;BME280;26342;42.826;23.992;2023-04-03T07:21:58;94775.94;;;9.49;100.00
40650;BME280;26342;42.826;23.992;2023-04-03T07:24:24;94773.84;;;9.67;100.00
40650;BME280;26342;42.826;23.992;2023-04-03T07:26:51;94772.78;;;9.88;100.00
40650;BME280;26342;42.826;23.992;2023-04-03T07:29:35;94766.38;;;9.99;100.00
40650;BME280;26342;42.826;23.992;2023-04-03T07:32:02;94769.31;;;10.13;100.00
40650;BME280;26342;42.826;23.992;2023-04-03T07:34:27;94771.72;;;10.25;100.00
40650;BME280;26342;42.826;23.992;2023-04-03T07:36:53;94786.88;;;10.40;100.00
40650;BME280;26342;42.826;23.992;2023-04-03T07:39:19;94780.22;;;10.52;100.00
40650;BME280;26342;42.826;23.992;2023-04-03T07:41:44;94780.41;;;10.71;100.00
40650;BME280;26342;42.826;23.992;2023-04-03T07:44:10;94780.66;;;10.85;100.00
40650;BME280;26342;42.826;23.992;2023-04-03T07:46:36;94773.16;;;10.92;100.00
40650;BME280;26342;42.826;23.992;2023-04-03T07:49:01;94777.63;;;11.07;100.00
40650;BME280;26342;42.826;23.992;2023-04-03T07:51:27;94771.66;;;11.25;100.00
40650;BME280;26342;42.826;23.992;2023-04-03T07:53:53;94762.25;;;11.38;100.00
40650;BME280;26342;42.826;23.992;2023-04-03T07:56:19;94759.81;;;11.41;100.00
40650;BME280;26342;42.826;23.992;2023-04-03T07:58:45;94743.81;;;11.36;100.00
40650;BME280;26342;42.826;23.992;2023-04-03T08:01:11;94739.34;;;11.66;100.00
40650;BME280;26342;42.826;23.992;2023-04-03T08:03:38;94744.31;;;11.83;100.00
40650;BME280;26342;42.826;23.992;2023-04-03T08:06:06;94745.06;;;11.93;100.00
40650;BME280;26342;42.826;23.992;2023-04-03T08:08:32;94750.28;;;12.09;100.00
40650;BME280;26342;42.826;23.992;2023-04-03T08:10:59;94749.13;;;12.15;100.00
40650;BME280;26342;42.826;23.992;2023-04-03T08:13:25;94745.34;;;12.21;100.00
40650;BME280;26342;42.826;23.992;2023-04-03T08:15:53;94737.22;;;12.31;100.00
40650;BME280;26342;42.826;23.992;2023-04-03T08:18:23;94740.25;;;12.48;100.00
40650;BME280;26342;42.826;23.992;2023-04-03T08:20:50;94744.25;;;12.51;100.00
40650;BME280;26342;42.826;23.992;2023-04-03T08:26:32;94721.00;;;12.70;100.00
40650;BME280;26342;42.826;23.992;2023-04-03T08:28:57;94733.41;;;12.85;100.00
40650;BME280;26342;42.826;23.992;2023-04-03T08:31:23;94733.53;;;12.75;100.00
40650;BME280;26342;42.826;23.992;2023-04-03T08:33:54;94737.59;;;12.72;100.00
40650;BME280;26342;42.826;23.992;2023-04-03T08:36:28;94732.16;;;12.77;100.00
40650;BME280;26342;42.826;23.992;2023-04-03T08:38:55;94734.22;;;12.85;100.00
40650;BME280;26342;42.826;23.992;2023-04-03T08:41:41;94702.38;;;12.84;100.00
40650;BME280;26342;42.826;23.992;2023-04-03T08:47:28;94711.84;;;12.95;96.56
40650;BME280;26342;42.826;23.992;2023-04-03T08:50:04;94718.47;;;12.79;100.00
40650;BME280;26342;42.826;23.992;2023-04-03T08:52:48;94711.69;;;12.86;100.00
40650;BME280;26342;42.826;23.992;2023-04-03T08:58:29;94715.88;;;12.98;98.71
40650;BME280;26342;42.826;23.992;2023-04-03T09:01:01;94707.97;;;13.06;96.24
40650;BME280;26342;42.826;23.992;2023-04-03T09:03:30;94707.03;;;13.16;94.99
40650;BME280;26342;42.826;23.992;2023-04-03T09:06:03;94708.59;;;13.22;96.69
40650;BME280;26342;42.826;23.992;2023-04-03T09:11:26;94702.88;;;13.29;95.83
40650;BME280;26342;42.826;23.992;2023-04-03T09:16:54;94708.38;;;13.56;90.73
40650;BME280;26342;42.826;23.992;2023-04-03T09:21:57;94711.56;;;13.39;91.04
40650;BME280;26342;42.826;23.992;2023-04-03T09:24:23;94701.88;;;13.44;89.20
40650;BME280;26342;42.826;23.992;2023-04-03T09:27:03;94703.53;;;13.39;89.39
40650;BME280;26342;42.826;23.992;2023-04-03T09:29:31;94700.22;;;13.29;93.01
40650;BME280;26342;42.826;23.992;2023-04-03T09:32:01;94700.84;;;13.39;92.85
40650;BME280;26342;42.826;23.992;2023-04-03T09:34:32;94693.41;;;13.36;90.88
40650;BME280;26342;42.826;23.992;2023-04-03T09:37:01;94693.44;;;13.50;92.54
40650;BME280;26342;42.826;23.992;2023-04-03T09:39:53;94696.00;;;13.60;87.91
40650;BME280;26342;42.826;23.992;2023-04-03T09:42:22;94686.50;;;13.68;87.90
40650;BME280;26342;42.826;23.992;2023-04-03T09:44:57;94686.50;;;13.68;88.53
40650;BME280;26342;42.826;23.992;2023-04-03T09:47:28;94681.75;;;13.79;86.57
40650;BME280;26342;42.826;23.992;2023-04-03T09:52:40;94668.47;;;13.87;85.40
40650;BME280;26342;42.826;23.992;2023-04-03T09:55:25;94669.25;;;13.88;81.60
40650;BME280;26342;42.826;23.992;2023-04-03T09:57:58;94668.16;;;13.75;83.76
40650;BME280;26342;42.826;23.992;2023-04-03T10:00:26;94665.25;;;13.72;83.70
40650;BME280;26342;42.826;23.992;2023-04-03T10:02:57;94668.41;;;13.74;85.27
40650;BME280;26342;42.826;23.992;2023-04-03T10:05:35;94666.38;;;13.84;85.84
40650;BME280;26342;42.826;23.992;2023-04-03T10:08:10;94657.25;;;13.85;83.46
40650;BME280;26342;42.826;23.992;2023-04-03T10:10:37;94658.75;;;13.91;82.01
40650;BME280;26342;42.826;23.992;2023-04-03T10:15:56;94653.81;;;13.99;83.00
40650;BME280;26342;42.826;23.992;2023-04-03T10:21:33;94651.00;;;14.04;83.03
40650;BME280;26342;42.826;23.992;2023-04-03T10:27:18;94648.03;;;13.91;83.82
40650;BME280;26342;42.826;23.992;2023-04-03T10:29:59;94641.88;;;13.91;83.50
40650;BME280;26342;42.826;23.992;2023-04-03T10:38:14;94637.13;;;13.69;83.69
40650;BME280;26342;42.826;23.992;2023-04-03T10:49:25;94628.44;;;13.26;85.78
40650;BME280;26342;42.826;23.992;2023-04-03T10:52:13;94618.94;;;13.14;86.17
40650;BME280;26342;42.826;23.992;2023-04-03T10:54:59;94622.41;;;13.15;85.88
40650;BME280;26342;42.826;23.992;2023-04-03T10:57:28;94610.41;;;13.12;86.26
40650;BME280;26342;42.826;23.992;2023-04-03T11:00:15;94609.69;;;13.07;86.06
40650;BME280;26342;42.826;23.992;2023-04-03T11:02:59;94608.44;;;12.99;87.62
40650;BME280;26342;42.826;23.992;2023-04-03T11:08:02;94605.78;;;12.99;88.74
40650;BME280;26342;42.826;23.992;2023-04-03T11:10:41;94607.59;;;13.04;89.38
40650;BME280;26342;42.826;23.992;2023-04-03T11:13:35;94602.44;;;12.89;91.09
40650;BME280;26342;42.826;23.992;2023-04-03T11:16:03;94601.94;;;12.86;92.72
40650;BME280;26342;42.826;23.992;2023-04-03T11:18:43;94613.50;;;12.82;94.74
40650;BME280;26342;42.826;23.992;2023-04-03T11:21:35;94614.66;;;12.76;99.64
40650;BME280;26342;42.826;23.992;2023-04-03T11:24:05;94610.41;;;12.75;100.00
40650;BME280;26342;42.826;23.992;2023-04-03T11:26:38;94624.22;;;12.82;100.00
40650;BME280;26342;42.826;23.992;2023-04-03T11:29:13;94616.59;;;12.70;100.00
40650;BME280;26342;42.826;23.992;2023-04-03T11:34:39;94618.34;;;12.61;100.00
40650;BME280;26342;42.826;23.992;2023-04-03T11:37:25;94614.38;;;12.35;100.00
40650;BME280;26342;42.826;23.992;2023-04-03T11:39:56;94631.28;;;12.06;100.00
40650;BME280;26342;42.826;23.992;2023-04-03T11:42:37;94623.03;;;11.73;100.00
40650;BME280;26342;42.826;23.992;2023-04-03T11:47:58;94635.97;;;11.27;100.00
40650;BME280;26342;42.826;23.992;2023-04-03T12:00:59;94643.19;;;10.28;100.00
40650;BME280;26342;42.826;23.992;2023-04-03T12:16:21;94636.63;;;9.79;100.00
40650;BME280;26342;42.826;23.992;2023-04-03T12:46:04;94621.19;;;9.61;100.00
40650;BME280;26342;42.826;23.992;2023-04-03T12:51:17;94590.56;;;9.54;100.00
40650;BME280;26342;42.826;23.992;2023-04-03T12:53:46;94602.28;;;9.73;100.00
40650;BME280;26342;42.826;23.992;2023-04-03T12:58:46;94595.28;;;9.97;100.00
40650;BME280;26342;42.826;23.992;2023-04-03T13:01:21;94585.38;;;10.08;100.00
40650;BME280;26342;42.826;23.992;2023-04-03T13:03:50;94578.41;;;10.22;100.00
40650;BME280;26342;42.826;23.992;2023-04-03T13:06:21;94577.56;;;10.37;100.00
40650;BME280;26342;42.826;23.992;2023-04-03T13:08:56;94580.66;;;10.49;100.00
40650;BME280;26342;42.826;23.992;2023-04-03T13:11:27;94580.66;;;10.54;100.00
40650;BME280;26342;42.826;23.992;2023-04-03T13:14:05;94575.56;;;10.58;100.00
40650;BME280;26342;42.826;23.992;2023-04-03T13:16:32;94576.88;;;10.60;100.00
40650;BME280;26342;42.826;23.992;2023-04-03T13:18:58;94571.25;;;10.67;100.00
40650;BME280;26342;42.826;23.992;2023-04-03T13:21:27;94553.59;;;10.76;100.00
40650;BME280;26342;42.826;23.992;2023-04-03T13:23:59;94543.13;;;10.80;100.00
40650;BME280;26342;42.826;23.992;2023-04-03T13:26:29;94533.25;;;10.80;100.00
40650;BME280;26342;42.826;23.992;2023-04-03T13:29:07;94545.53;;;10.81;100.00
40650;BME280;26342;42.826;23.992;2023-04-03T13:31:43;94547.09;;;10.87;100.00
40650;BME280;26342;42.826;23.992;2023-04-03T13:41:42;94542.50;;;10.93;100.00
40650;BME280;26342;42.826;23.992;2023-04-03T13:44:35;94535.31;;;10.88;100.00
40650;BME280;26342;42.826;23.992;2023-04-03T13:49:37;94533.91;;;11.01;100.00
40650;BME280;26342;42.826;23.992;2023-04-03T13:52:32;94531.53;;;11.00;100.00
40650;BME280;26342;42.826;23.992;2023-04-03T13:55:16;94526.25;;;10.89;100.00
40650;BME280;26342;42.826;23.992;2023-04-03T13:58:16;94517.22;;;10.85;100.00
40650;BME280;26342;42.826;23.992;2023-04-03T14:00:48;94514.53;;;10.85;100.00
40650;BME280;26342;42.826;23.992;2023-04-03T14:03:45;94527.91;;;10.80;100.00
40650;BME280;26342;42.826;23.992;2023-04-03T14:06:14;94526.63;;;10.78;100.00
40650;BME280;26342;42.826;23.992;2023-04-03T14:08:40;94515.44;;;10.76;100.00
40650;BME280;26342;42.826;23.992;2023-04-03T14:11:12;94523.66;;;10.79;100.00
40650;BME280;26342;42.826;23.992;2023-04-03T14:13:39;94506.88;;;10.74;100.00
40650;BME280;26342;42.826;23.992;2023-04-03T14:16:05;94513.28;;;10.73;100.00
40650;BME280;26342;42.826;23.992;2023-04-03T14:18:30;94503.97;;;10.75;100.00
40650;BME280;26342;42.826;23.992;2023-04-03T14:20:56;94506.44;;;10.67;100.00
40650;BME280;26342;42.826;23.992;2023-04-03T14:23:21;94510.72;;;10.62;100.00
40650;BME280;26342;42.826;23.992;2023-04-03T14:25:47;94504.66;;;10.52;100.00
40650;BME280;26342;42.826;23.992;2023-04-03T14:28:17;94510.25;;;10.50;100.00
40650;BME280;26342;42.826;23.992;2023-04-03T14:30:44;94511.69;;;10.38;100.00
40650;BME280;26342;42.826;23.992;2023-04-03T14:33:16;94507.16;;;10.33;100.00
40650;BME280;26342;42.826;23.992;2023-04-03T14:35:43;94522.13;;;10.29;100.00
40650;BME280;26342;42.826;23.992;2023-04-03T14:38:25;94515.47;;;10.26;100.00
40650;BME280;26342;42.826;23.992;2023-04-03T14:40:51;94494.94;;;10.17;100.00
40650;BME280;26342;42.826;23.992;2023-04-03T14:43:17;94498.66;;;10.26;100.00
40650;BME280;26342;42.826;23.992;2023-04-03T14:45:43;94499.44;;;10.31;100.00
40650;BME280;26342;42.826;23.992;2023-04-03T14:48:22;94509.00;;;10.38;100.00
40650;BME280;26342;42.826;23.992;2023-04-03T14:50:49;94502.88;;;10.37;100.00
40650;BME280;26342;42.826;23.992;2023-04-03T14:53:16;94506.88;;;10.34;100.00
40650;BME280;26342;42.826;23.992;2023-04-03T14:55:44;94508.75;;;10.34;100.00
40650;BME280;26342;42.826;23.992;2023-04-03T14:58:15;94498.13;;;10.29;100.00
40650;BME280;26342;42.826;23.992;2023-04-03T15:00:41;94505.63;;;10.27;100.00
40650;BME280;26342;42.826;23.992;2023-04-03T15:03:13;94509.31;;;10.31;100.00
40650;BME280;26342;42.826;23.992;2023-04-03T15:05:38;94500.22;;;10.32;100.00
40650;BME280;26342;42.826;23.992;2023-04-03T15:08:04;94511.41;;;10.34;100.00
40650;BME280;26342;42.826;23.992;2023-04-03T15:10:30;94503.75;;;10.27;100.00
40650;BME280;26342;42.826;23.992;2023-04-03T15:12:56;94497.63;;;10.17;100.00
40650;BME280;26342;42.826;23.992;2023-04-03T15:15:23;94497.13;;;10.10;100.00
40650;BME280;26342;42.826;23.992;2023-04-03T15:17:55;94488.09;;;10.05;100.00